createdAt,value
2023-09-18T00:02:14.947Z,81.95
2023-09-18T00:04:45.782Z,82.91
2023-09-18T00:07:17.208Z,82.56
2023-09-18T00:09:47.838Z,82.01
2023-09-18T00:12:18.452Z,82.77
2023-09-18T00:14:52.458Z,82.51
2023-09-18T00:17:26.391Z,82.44
2023-09-18T00:19:57.156Z,82.46
2023-09-18T00:22:28.437Z,81.86
2023-09-18T00:24:59.889Z,82.13
2023-09-18T00:27:31.103Z,82.31
2023-09-18T00:30:02.381Z,81.79
2023-09-18T00:32:34.127Z,81.37
2023-09-18T00:35:05.497Z,81.82
2023-09-18T00:37:36.323Z,82.59
2023-09-18T00:40:07.893Z,82.12
2023-09-18T00:42:38.742Z,82.45
2023-09-18T00:45:09.708Z,81.77
2023-09-18T00:47:41.327Z,83.22
2023-09-18T00:50:15.226Z,83.35
2023-09-18T00:52:46.802Z,84.08
2023-09-18T00:55:18.722Z,83.47
2023-09-18T00:57:50.052Z,82.91
2023-09-18T01:00:21.536Z,82.82
2023-09-18T01:02:53.586Z,83.52
2023-09-18T01:05:24.420Z,83.48
2023-09-18T01:07:55.196Z,82.98
2023-09-18T01:10:31.079Z,83.67
2023-09-18T01:13:18.189Z,83.05
2023-09-18T01:16:06.541Z,83.32
2023-09-18T01:18:37.981Z,82.62
2023-09-18T01:21:08.959Z,82.97
2023-09-18T01:23:39.510Z,83.16
2023-09-18T01:26:10.683Z,83.85
2023-09-18T01:28:41.048Z,84.24
2023-09-18T01:31:11.585Z,84.15
2023-09-18T01:33:43.481Z,84.67
2023-09-18T01:36:16.275Z,84.72
2023-09-18T01:38:47.716Z,85.77
2023-09-18T01:41:18.129Z,84.74
2023-09-18T01:43:48.313Z,85.15
2023-09-18T01:46:18.808Z,85.30
2023-09-18T01:48:50.458Z,86.01
2023-09-18T01:51:21.998Z,85.65
2023-09-18T01:53:52.200Z,86.91
2023-09-18T01:56:22.488Z,87.10
2023-09-18T01:58:53.167Z,87.55
2023-09-18T02:01:25.213Z,87.40
2023-09-18T02:04:23.361Z,87.50
2023-09-18T02:06:46.819Z,88.16
2023-09-18T02:09:17.062Z,88.27
2023-09-18T02:11:50.381Z,88.90
2023-09-18T02:14:20.735Z,88.24
2023-09-18T02:16:51.622Z,88.89
2023-09-18T02:19:22.572Z,88.54
2023-09-18T02:21:52.777Z,88.93
2023-09-18T02:24:22.996Z,88.96
2023-09-18T02:26:54.141Z,89.61
2023-09-18T02:29:25.318Z,89.55
2023-09-18T02:31:55.622Z,89.59
2023-09-18T02:34:25.839Z,89.23
2023-09-18T02:36:56.256Z,89.11
2023-09-18T02:39:26.458Z,89.48
2023-09-18T02:41:57.188Z,88.27
2023-09-18T02:44:27.286Z,89.43
2023-09-18T02:46:57.617Z,89.30
2023-09-18T02:49:27.813Z,89.92
2023-09-18T02:51:58.159Z,90.40
2023-09-18T02:54:29.112Z,89.93
2023-09-18T02:56:59.386Z,90.26
2023-09-18T02:59:29.664Z,89.17
2023-09-18T03:02:00.159Z,89.58
2023-09-18T03:04:32.834Z,89.68
2023-09-18T03:07:03.927Z,90.24
2023-09-18T03:09:34.189Z,90.52
2023-09-18T03:12:04.831Z,90.78
2023-09-18T03:14:35.087Z,90.20
2023-09-18T03:17:05.619Z,91.13
2023-09-18T03:19:35.621Z,90.95
2023-09-18T03:22:06.069Z,91.40
2023-09-18T03:24:36.725Z,91.52
2023-09-18T03:27:06.869Z,90.55
2023-09-18T03:29:37.354Z,89.07
2023-09-18T03:32:07.866Z,89.68
2023-09-18T03:34:39.323Z,88.67
2023-09-18T03:37:10.689Z,89.85
2023-09-18T03:39:40.924Z,90.75
2023-09-18T03:42:11.118Z,90.80
2023-09-18T03:44:41.410Z,90.81
2023-09-18T03:47:11.732Z,90.36
2023-09-18T03:49:41.884Z,89.43
2023-09-18T03:52:12.411Z,89.14
2023-09-18T03:54:42.647Z,89.21
2023-09-18T03:57:12.911Z,89.54
2023-09-18T03:59:45.617Z,90.38
2023-09-18T04:02:15.996Z,90.15
2023-09-18T04:04:46.331Z,90.47
2023-09-18T04:07:18.798Z,90.61
2023-09-18T04:09:49.279Z,89.25
2023-09-18T04:12:19.957Z,88.65
2023-09-18T04:14:50.137Z,88.13
2023-09-18T04:17:20.583Z,89.83
2023-09-18T04:19:50.809Z,88.80
2023-09-18T04:22:21.013Z,86.88
2023-09-18T04:24:51.308Z,86.50
2023-09-18T04:27:21.540Z,87.20
2023-09-18T04:29:51.815Z,86.51
2023-09-18T04:32:22.155Z,87.21
2023-09-18T04:34:52.383Z,86.14
2023-09-18T04:37:22.898Z,87.30
2023-09-18T04:39:53.115Z,89.32
2023-09-18T04:42:23.269Z,88.17
2023-09-18T04:44:53.460Z,87.65
2023-09-18T04:47:23.720Z,86.83
2023-09-18T04:49:53.984Z,86.67
2023-09-18T04:52:24.705Z,86.48
2023-09-18T04:54:56.456Z,86.41
2023-09-18T04:57:26.683Z,85.86
2023-09-18T05:00:14.351Z,85.93
2023-09-18T05:02:47.264Z,85.79
2023-09-18T05:05:17.673Z,86.28
2023-09-18T05:07:48.049Z,86.23
2023-09-18T05:10:18.833Z,86.58
2023-09-18T05:12:49.137Z,86.18
2023-09-18T05:15:19.411Z,86.36
2023-09-18T05:17:54.350Z,85.55
2023-09-18T05:20:26.372Z,85.62
2023-09-18T05:22:57.557Z,85.87
2023-09-18T05:25:27.978Z,85.32
2023-09-18T05:28:01.959Z,85.10
2023-09-18T05:30:36.435Z,85.10
2023-09-18T05:33:07.551Z,85.78
2023-09-18T05:35:38.951Z,85.08
2023-09-18T05:38:09.166Z,84.86
2023-09-18T05:40:39.568Z,85.08
2023-09-18T05:43:10.521Z,85.12
2023-09-18T05:45:41.323Z,84.93
2023-09-18T05:48:11.901Z,85.09
2023-09-18T05:50:44.086Z,84.59
2023-09-18T05:53:14.758Z,84.91
2023-09-18T05:55:45.021Z,85.04
2023-09-18T05:58:16.246Z,85.27
2023-09-18T06:00:45.938Z,84.75
2023-09-18T06:03:17.350Z,84.93
2023-09-18T06:05:47.698Z,85.25
2023-09-18T06:08:18.051Z,84.89
2023-09-18T06:10:48.351Z,85.12
2023-09-18T06:13:18.549Z,85.20
2023-09-18T06:15:48.759Z,85.12
2023-09-18T06:18:19.016Z,85.01
2023-09-18T06:20:52.976Z,85.31
2023-09-18T06:23:23.187Z,84.78
2023-09-18T06:25:58.385Z,85.20
2023-09-18T06:28:28.581Z,84.65
2023-09-18T06:30:58.938Z,85.19
2023-09-18T06:33:29.366Z,85.18
2023-09-18T06:35:59.584Z,84.99
2023-09-18T06:38:29.773Z,85.22
2023-09-18T06:41:00.071Z,85.46
2023-09-18T06:43:30.320Z,85.20
2023-09-18T06:46:00.573Z,85.44
2023-09-18T06:48:34.567Z,85.40
2023-09-18T06:51:04.848Z,84.87
2023-09-18T06:53:35.657Z,84.69
2023-09-18T06:56:07.264Z,84.40
2023-09-18T06:58:37.797Z,84.57
2023-09-18T07:01:11.949Z,84.14
2023-09-18T07:03:43.109Z,84.17
2023-09-18T07:06:13.753Z,84.29
2023-09-18T07:08:45.082Z,84.37
2023-09-18T07:11:15.498Z,84.72
2023-09-18T07:13:46.240Z,84.52
2023-09-18T07:16:16.754Z,84.70
2023-09-18T07:18:47.095Z,84.93
2023-09-18T07:21:18.541Z,84.88
2023-09-18T07:23:50.926Z,84.64
2023-09-18T07:26:21.212Z,84.08
2023-09-18T07:28:51.941Z,84.37
2023-09-18T07:31:22.538Z,84.76
2023-09-18T07:33:55.735Z,83.97
2023-09-18T07:36:27.158Z,83.61
2023-09-18T07:39:01.090Z,83.03
2023-09-18T07:41:31.502Z,82.77
2023-09-18T07:44:01.850Z,83.01
2023-09-18T07:46:32.453Z,82.35
2023-09-18T07:49:02.748Z,82.49
2023-09-18T07:51:33.021Z,82.20
2023-09-18T07:54:03.785Z,82.98
2023-09-18T07:56:36.823Z,83.25
2023-09-18T07:59:07.566Z,83.74
2023-09-18T08:01:37.969Z,84.04
2023-09-18T08:04:08.378Z,84.36
2023-09-18T08:06:40.043Z,84.65
2023-09-18T08:09:12.614Z,84.60
2023-09-18T08:11:47.594Z,84.73
2023-09-18T08:14:19.655Z,84.12
2023-09-18T08:16:49.910Z,83.81
2023-09-18T08:19:22.310Z,83.41
2023-09-18T08:21:54.265Z,83.26
2023-09-18T08:24:25.266Z,83.62
2023-09-18T08:26:56.620Z,83.81
2023-09-18T08:29:27.472Z,83.35
2023-09-18T08:31:59.277Z,84.08
2023-09-18T08:34:29.918Z,83.90
2023-09-18T08:37:00.315Z,84.05
2023-09-18T08:39:30.767Z,83.97
2023-09-18T08:42:06.228Z,84.08
2023-09-18T08:44:41.323Z,84.11
2023-09-18T08:47:14.469Z,84.35
2023-09-18T08:49:45.214Z,84.52
2023-09-18T08:52:17.184Z,84.57
2023-09-18T08:54:48.818Z,84.43
2023-09-18T08:57:19.196Z,84.55
2023-09-18T08:59:53.266Z,84.99
2023-09-18T09:02:23.482Z,84.80
2023-09-18T09:04:53.777Z,85.02
2023-09-18T09:07:24.048Z,85.19
2023-09-18T09:09:54.331Z,85.72
2023-09-18T09:12:59.518Z,85.76
2023-09-18T09:15:34.248Z,85.71
2023-09-18T09:18:11.393Z,86.12
2023-09-18T09:20:42.208Z,85.99
2023-09-18T09:23:13.386Z,85.58
2023-09-18T09:25:43.658Z,85.65
2023-09-18T09:28:14.473Z,86.20
2023-09-18T09:30:45.059Z,86.41
2023-09-18T09:33:15.587Z,86.91
2023-09-18T09:35:46.241Z,86.29
2023-09-18T09:38:18.308Z,86.34
2023-09-18T09:40:48.651Z,86.76
2023-09-18T09:43:20.453Z,87.08
2023-09-18T09:45:51.228Z,87.15
2023-09-18T09:48:23.152Z,87.39
2023-09-18T09:50:54.079Z,87.16
2023-09-18T09:53:50.954Z,87.04
2023-09-18T09:56:24.659Z,88.65
2023-09-18T09:59:06.561Z,88.21
2023-09-18T10:01:38.013Z,88.33
2023-09-18T10:04:14.015Z,88.74
2023-09-18T10:06:47.316Z,87.75
2023-09-18T10:09:20.146Z,88.75
2023-09-18T10:11:55.541Z,88.52
2023-09-18T10:14:55.580Z,88.69
2023-09-18T10:17:35.077Z,88.27
2023-09-18T10:20:13.036Z,87.81
2023-09-18T10:22:49.059Z,87.49
2023-09-18T10:25:30.971Z,88.36
2023-09-18T10:28:05.017Z,86.64
2023-09-18T10:30:38.162Z,85.83
2023-09-18T10:33:09.929Z,85.46
2023-09-18T10:35:41.259Z,85.36
2023-09-18T10:38:13.223Z,84.46
2023-09-18T10:40:44.011Z,84.31
2023-09-18T10:43:17.010Z,82.67
2023-09-18T10:45:48.155Z,81.78
2023-09-18T10:48:18.646Z,82.12
2023-09-18T10:50:49.213Z,81.38
2023-09-18T10:53:22.772Z,79.97
2023-09-18T10:55:53.727Z,79.60
2023-09-18T10:58:28.271Z,79.83
2023-09-18T11:00:59.796Z,79.00
2023-09-18T11:03:30.219Z,78.70
2023-09-18T11:06:13.261Z,78.23
2023-09-18T11:08:46.559Z,78.50
2023-09-18T11:11:17.161Z,77.71
2023-09-18T11:13:52.221Z,76.49
2023-09-18T11:16:40.711Z,76.04
2023-09-18T11:19:16.313Z,75.53
2023-09-18T11:21:47.958Z,74.95
2023-09-18T11:24:24.937Z,73.69
2023-09-18T11:26:55.575Z,74.16
2023-09-18T11:29:29.163Z,73.35
2023-09-18T11:32:06.203Z,74.10
2023-09-18T11:34:41.328Z,74.51
2023-09-18T11:37:28.016Z,74.38
2023-09-18T11:39:59.201Z,72.88
2023-09-18T11:42:30.568Z,73.76
2023-09-18T11:45:01.627Z,71.99
2023-09-18T11:47:32.161Z,71.00
2023-09-18T11:50:05.213Z,71.64
2023-09-18T11:52:37.804Z,69.92
2023-09-18T11:55:10.403Z,69.39
2023-09-18T11:57:41.135Z,68.28
2023-09-18T12:00:24.977Z,69.04
2023-09-18T12:02:55.236Z,70.06
2023-09-18T12:05:28.974Z,69.52
2023-09-18T12:07:59.749Z,69.62
2023-09-18T12:10:30.569Z,69.19
2023-09-18T12:13:01.005Z,68.34
2023-09-18T12:15:32.175Z,67.91
2023-09-18T12:18:09.157Z,67.10
2023-09-18T12:20:41.816Z,66.18
2023-09-18T12:23:12.227Z,64.21
2023-09-18T12:25:43.110Z,63.20
2023-09-18T12:28:13.451Z,64.44
2023-09-18T12:30:44.247Z,66.17
2023-09-18T12:33:14.978Z,67.78
2023-09-18T12:35:45.415Z,69.22
2023-09-18T12:38:29.003Z,70.36
2023-09-18T12:41:08.070Z,71.16
2023-09-18T12:43:43.777Z,72.31
2023-09-18T12:46:14.857Z,73.38
2023-09-18T12:48:48.588Z,74.74
2023-09-18T12:51:24.814Z,75.46
2023-09-18T12:54:03.143Z,75.26
2023-09-18T12:56:33.344Z,75.66
2023-09-18T12:59:12.605Z,75.83
2023-09-18T13:01:48.666Z,75.90
2023-09-18T13:04:19.154Z,76.23
2023-09-18T13:06:49.592Z,76.39
2023-09-18T13:09:25.089Z,77.00
2023-09-18T13:11:59.439Z,77.21
2023-09-18T13:14:29.667Z,77.06
2023-09-18T13:17:08.729Z,77.00
2023-09-18T13:19:39.270Z,77.26
2023-09-18T13:22:09.472Z,77.58
2023-09-18T13:24:40.087Z,77.84
2023-09-18T13:27:10.308Z,77.53
2023-09-18T13:29:40.328Z,77.18
2023-09-18T13:32:10.551Z,77.59
2023-09-18T13:34:41.570Z,77.47
2023-09-18T13:37:11.888Z,78.45
2023-09-18T13:39:42.070Z,78.48
2023-09-18T13:42:12.237Z,79.62
2023-09-18T13:44:42.411Z,79.90
2023-09-18T13:47:12.600Z,80.50
2023-09-18T13:49:42.719Z,80.97
2023-09-18T13:52:12.667Z,79.77
2023-09-18T13:54:49.989Z,80.29
2023-09-18T13:57:21.207Z,79.98
2023-09-18T13:59:52.451Z,79.34
2023-09-18T14:02:23.303Z,79.83
2023-09-18T14:04:53.502Z,79.49
2023-09-18T14:07:24.668Z,79.18
2023-09-18T14:09:54.398Z,79.14
2023-09-18T14:12:24.446Z,78.41
2023-09-18T14:14:54.590Z,78.28
2023-09-18T14:17:24.856Z,78.90
2023-09-18T14:19:55.921Z,77.38
2023-09-18T14:22:25.676Z,76.84
2023-09-18T14:24:56.570Z,75.78
2023-09-18T14:27:26.742Z,75.97
2023-09-18T14:29:56.744Z,77.05
2023-09-18T14:32:27.347Z,77.73
2023-09-18T14:34:57.625Z,77.23
2023-09-18T14:37:27.789Z,74.65
2023-09-18T14:39:57.759Z,75.03
2023-09-18T14:42:27.699Z,73.71
2023-09-18T14:44:58.003Z,74.64
2023-09-18T14:47:28.438Z,75.61
2023-09-18T14:50:00.665Z,72.96
2023-09-18T14:52:31.181Z,72.92
2023-09-18T14:55:05.779Z,72.27
2023-09-18T14:57:35.990Z,73.59
2023-09-18T15:00:08.420Z,73.67
2023-09-18T15:02:39.032Z,74.29
2023-09-18T15:05:12.620Z,74.22
2023-09-18T15:07:42.800Z,75.36
2023-09-18T15:10:13.041Z,74.77
2023-09-18T15:12:44.477Z,74.83
2023-09-18T15:15:14.610Z,73.53
2023-09-18T15:17:44.538Z,73.28
2023-09-18T15:20:15.212Z,73.33
2023-09-18T15:22:45.469Z,72.88
2023-09-18T15:25:15.444Z,72.94
2023-09-18T15:27:46.337Z,72.71
2023-09-18T15:30:17.278Z,71.97
2023-09-18T15:32:55.464Z,73.95
2023-09-18T15:35:27.106Z,73.63
2023-09-18T15:37:57.381Z,73.36
2023-09-18T15:40:27.508Z,74.06
2023-09-18T15:42:57.704Z,74.07
2023-09-18T15:45:27.947Z,74.15
2023-09-18T15:47:58.383Z,73.68
2023-09-18T15:50:28.696Z,72.81
2023-09-18T15:52:58.985Z,72.41
2023-09-18T15:55:29.029Z,71.85
2023-09-18T15:57:58.928Z,70.92
2023-09-18T16:00:29.186Z,72.30
2023-09-18T16:02:59.707Z,69.92
2023-09-18T16:05:29.870Z,71.15
2023-09-18T16:08:06.043Z,71.65
2023-09-18T16:10:36.795Z,72.69
2023-09-18T16:13:06.777Z,74.35
2023-09-18T16:15:36.673Z,75.45
2023-09-18T16:18:07.474Z,74.69
2023-09-18T16:20:37.729Z,75.10
2023-09-18T16:23:07.613Z,75.74
2023-09-18T16:25:37.426Z,76.47
2023-09-18T16:28:08.586Z,77.63
2023-09-18T16:30:38.677Z,78.38
2023-09-18T16:33:08.590Z,78.78
2023-09-18T16:35:39.214Z,79.64
2023-09-18T16:38:10.154Z,80.12
2023-09-18T16:40:40.232Z,80.34
2023-09-18T16:43:11.149Z,81.14
2023-09-18T16:45:44.601Z,81.86
2023-09-18T16:48:14.894Z,85.36
2023-09-18T16:50:46.110Z,89.97
2023-09-18T16:53:17.732Z,93.15
2023-09-18T16:55:47.892Z,94.02
2023-09-18T16:58:18.045Z,94.56
2023-09-18T17:00:48.173Z,95.00
2023-09-18T17:03:18.960Z,94.82
2023-09-18T17:05:49.242Z,95.63
2023-09-18T17:08:19.434Z,95.43
2023-09-18T17:10:50.696Z,95.23
2023-09-18T17:13:20.998Z,97.60
2023-09-18T17:15:52.117Z,96.27
2023-09-18T17:18:22.852Z,97.25
2023-09-18T17:20:53.617Z,96.66
2023-09-18T17:23:24.699Z,96.94
2023-09-18T17:25:54.883Z,96.60
2023-09-18T17:28:25.063Z,97.68
2023-09-18T17:30:55.216Z,98.66
2023-09-18T17:33:25.771Z,99.47
2023-09-18T17:35:55.910Z,99.10
2023-09-18T17:38:27.115Z,98.88
2023-09-18T17:40:56.715Z,98.53
2023-09-18T17:43:26.538Z,99.22
2023-09-18T17:45:56.803Z,99.71
2023-09-18T17:48:27.080Z,99.61
2023-09-18T17:50:57.407Z,99.99
2023-09-18T17:53:27.933Z,99.99
2023-09-18T17:55:59.572Z,97.97
2023-09-18T17:58:29.778Z,97.08
2023-09-18T18:00:59.983Z,96.57
2023-09-18T18:03:30.810Z,97.40
2023-09-18T18:06:01.524Z,97.61
2023-09-18T18:11:05.795Z,97.15
2023-09-18T18:13:35.514Z,96.75
2023-09-18T18:16:07.153Z,97.40
2023-09-18T18:18:39.879Z,99.21
2023-09-18T18:21:10.105Z,99.26
2023-09-18T18:23:40.536Z,99.27
2023-09-18T18:26:12.640Z,99.23
2023-09-18T18:28:42.784Z,99.85
2023-09-18T18:31:14.549Z,99.99
2023-09-18T18:33:45.028Z,99.99
2023-09-18T18:36:15.478Z,99.99
2023-09-18T18:38:45.745Z,99.99
2023-09-18T18:41:15.891Z,99.99
2023-09-18T18:43:48.190Z,99.54
2023-09-18T18:46:18.450Z,99.99
2023-09-18T18:48:48.806Z,99.99
2023-09-18T18:51:20.384Z,99.99
2023-09-18T18:53:51.141Z,99.99
2023-09-18T18:56:21.578Z,99.99
2023-09-18T18:58:51.966Z,99.99
2023-09-18T19:01:26.560Z,99.99
2023-09-18T19:03:58.065Z,99.99
2023-09-18T19:06:28.609Z,99.99
2023-09-18T19:09:01.128Z,99.99
2023-09-18T19:11:31.957Z,99.99
2023-09-18T19:14:02.664Z,99.99
2023-09-18T19:16:33.305Z,99.99
2023-09-18T19:19:04.009Z,99.99
2023-09-18T19:21:36.175Z,99.99
2023-09-18T19:24:06.932Z,99.85
2023-09-18T19:26:37.240Z,99.99
2023-09-18T19:29:07.487Z,99.99
2023-09-18T19:31:37.664Z,99.99
2023-09-18T19:34:10.331Z,99.99
2023-09-18T19:36:40.477Z,99.68
2023-09-18T19:39:11.021Z,99.99
2023-09-18T19:41:41.659Z,99.75
2023-09-18T19:44:11.966Z,99.99
2023-09-18T19:46:42.158Z,99.99
2023-09-18T19:49:12.398Z,99.44
2023-09-18T19:51:42.669Z,99.99
2023-09-18T19:54:16.991Z,99.98
2023-09-18T19:56:47.263Z,99.91
2023-09-18T19:59:17.407Z,99.83
2023-09-18T20:01:50.907Z,98.80
2023-09-18T20:04:21.608Z,99.24
2023-09-18T20:06:55.028Z,99.08
2023-09-18T20:09:25.490Z,98.18
2023-09-18T20:11:55.941Z,97.64
2023-09-18T20:14:32.169Z,97.03
2023-09-18T20:17:02.772Z,95.42
2023-09-18T20:19:32.946Z,96.18
2023-09-18T20:22:05.029Z,95.20
2023-09-18T20:24:35.259Z,95.68
2023-09-18T20:27:05.622Z,96.10
2023-09-18T20:29:36.166Z,95.78
2023-09-18T20:32:06.754Z,95.68
2023-09-18T20:34:37.271Z,96.20
2023-09-18T20:37:09.052Z,97.11
2023-09-18T20:39:39.408Z,96.96
2023-09-18T20:42:09.719Z,97.70
2023-09-18T20:44:39.918Z,97.52
2023-09-18T20:47:10.223Z,97.13
2023-09-18T20:49:45.038Z,96.65
2023-09-18T20:52:15.163Z,96.55
2023-09-18T20:54:46.384Z,96.20
2023-09-18T20:57:16.093Z,95.81
2023-09-18T20:59:46.618Z,96.75
2023-09-18T21:02:16.914Z,95.88
2023-09-18T21:04:47.614Z,96.50
2023-09-18T21:07:17.625Z,95.65
2023-09-18T21:09:48.771Z,95.92
2023-09-18T21:12:21.793Z,95.49
2023-09-18T21:14:52.647Z,95.84
2023-09-18T21:17:22.902Z,96.42
2023-09-18T21:19:53.217Z,97.33
2023-09-18T21:22:23.352Z,98.16
2023-09-18T21:24:53.666Z,98.80
2023-09-18T21:27:24.554Z,98.98
2023-09-18T21:29:54.861Z,99.00
2023-09-18T21:32:25.677Z,99.00
2023-09-18T21:34:56.209Z,98.78
2023-09-18T21:37:26.458Z,98.71
2023-09-18T21:39:56.851Z,98.76
2023-09-18T21:42:26.977Z,98.51
2023-09-18T21:44:57.001Z,98.54
2023-09-18T21:47:27.252Z,98.74
2023-09-18T21:49:57.820Z,99.99
2023-09-18T21:52:28.068Z,99.99
2023-09-18T21:54:59.023Z,99.99
2023-09-18T21:57:29.177Z,99.99
2023-09-18T22:00:00.399Z,99.99
2023-09-18T22:02:31.349Z,99.99
2023-09-18T22:05:01.842Z,99.99
2023-09-18T22:07:32.893Z,99.99
2023-09-18T22:10:03.370Z,99.99
2023-09-18T22:12:33.791Z,99.99
2023-09-18T22:15:14.798Z,99.99
2023-09-18T22:17:45.614Z,99.99
2023-09-18T22:20:16.670Z,99.99
2023-09-18T22:22:49.888Z,99.99
2023-09-18T22:25:20.684Z,99.99
2023-09-18T22:27:51.795Z,99.99
2023-09-18T22:30:23.601Z,99.99
2023-09-18T22:32:53.851Z,99.99
2023-09-18T22:35:25.232Z,99.99
2023-09-18T22:38:04.441Z,99.99
2023-09-18T22:40:35.553Z,99.99
2023-09-18T22:43:43.104Z,99.99
2023-09-18T22:46:51.598Z,99.99
2023-09-18T22:49:59.852Z,99.99
2023-09-18T22:52:49.590Z,99.99
2023-09-18T22:55:22.571Z,99.99
2023-09-18T22:57:57.252Z,99.99
2023-09-18T23:00:32.143Z,99.99
2023-09-18T23:03:12.216Z,99.99
2023-09-18T23:05:43.768Z,99.99
2023-09-18T23:08:18.599Z,99.99
2023-09-18T23:10:50.769Z,99.99
2023-09-18T23:13:22.533Z,99.99
2023-09-18T23:15:54.186Z,99.99
2023-09-18T23:18:25.916Z,99.99
2023-09-18T23:20:58.630Z,99.99
2023-09-18T23:23:33.229Z,99.99
2023-09-18T23:26:05.011Z,99.99
2023-09-18T23:28:40.011Z,99.99
2023-09-18T23:31:13.173Z,99.99
2023-09-18T23:33:48.660Z,99.99
2023-09-18T23:36:20.492Z,99.99
2023-09-18T23:38:52.164Z,99.99
2023-09-18T23:41:31.884Z,99.99
2023-09-18T23:44:19.299Z,99.99
2023-09-18T23:46:54.044Z,99.99
2023-09-18T23:49:25.736Z,99.99
2023-09-18T23:52:05.121Z,99.99
2023-09-18T23:54:36.689Z,99.99
2023-09-18T23:57:10.820Z,99.99
2023-09-18T23:59:42.545Z,99.99
